Time;durP1;ratioP1;P1;durP2;ratioP2;P2;SDS_P1;SDS_P2;PMS_P1;PMS_P2;Temp;Humidity;BMP_temperature;BMP_pressure;BME280_temperature;BME280_humidity;BME280_pressure;Samples;Min_cycle;Max_cycle;Signal;HPM_P1;HPM_P2
2022/05/15 00:01:57;;;;;;;17.40;15.73;;;11.80;99.90;;;;;;5042750;28;21040;-66
2022/05/15 00:04:24;;;;;;;20.27;17.57;;;11.80;99.90;;;;;;5034444;28;20464;-67
2022/05/15 00:06:52;;;;;;;24.53;17.23;;;11.80;99.90;;;;;;5038970;28;21044;-67
2022/05/15 00:09:19;;;;;;;18.40;16.40;;;11.90;99.90;;;;;;5034280;28;20465;-67
2022/05/15 00:11:46;;;;;;;20.20;16.87;;;11.90;99.90;;;;;;5036408;28;20479;-67
2022/05/15 00:14:14;;;;;;;17.60;15.90;;;11.90;99.90;;;;;;5035472;28;20910;-67
2022/05/15 00:16:40;;;;;;;18.00;16.23;;;11.80;99.90;;;;;;5033358;28;20456;-67
2022/05/15 00:19:09;;;;;;;22.53;17.13;;;11.80;99.90;;;;;;5036714;28;20464;-67
2022/05/15 00:21:37;;;;;;;23.27;16.13;;;11.80;99.90;;;;;;5032367;28;20464;-67
2022/05/15 00:24:06;;;;;;;18.53;16.83;;;11.90;99.90;;;;;;5037592;28;20460;-67
2022/05/15 00:26:33;;;;;;;19.80;17.90;;;11.90;99.90;;;;;;5033839;28;20870;-67
2022/05/15 00:29:01;;;;;;;21.70;18.23;;;11.90;99.90;;;;;;5031328;28;20935;-67
2022/05/15 00:31:28;;;;;;;24.17;18.80;;;11.90;99.90;;;;;;5037942;28;20492;-66
2022/05/15 00:33:55;;;;;;;22.80;18.20;;;11.90;99.90;;;;;;5037993;28;20590;-67
2022/05/15 00:36:22;;;;;;;26.30;18.50;;;11.80;99.90;;;;;;5033134;28;20797;-67
2022/05/15 00:38:49;;;;;;;19.03;17.13;;;11.80;99.90;;;;;;5029125;28;20459;-67
2022/05/15 00:41:18;;;;;;;24.40;17.83;;;11.70;99.90;;;;;;5035908;28;21036;-66
2022/05/15 00:43:47;;;;;;;18.90;17.17;;;11.70;99.90;;;;;;5037146;28;20810;-67
2022/05/15 00:46:17;;;;;;;19.43;17.43;;;11.50;99.90;;;;;;5033181;28;20459;-67
2022/05/15 00:48:44;;;;;;;20.77;18.90;;;11.40;99.90;;;;;;5034439;28;20946;-67
2022/05/15 00:51:17;;;;;;;22.27;19.97;;;11.30;99.90;;;;;;5032612;28;20496;-67
2022/05/15 00:53:47;;;;;;;20.17;18.23;;;11.30;99.90;;;;;;5031370;28;20471;-66
2022/05/15 00:56:20;;;;;;;24.07;18.83;;;11.30;99.90;;;;;;5036239;28;20849;-67
2022/05/15 00:58:50;;;;;;;20.67;18.57;;;11.20;99.90;;;;;;5038225;28;20456;-67
2022/05/15 01:01:19;;;;;;;19.13;17.50;;;11.10;99.90;;;;;;5034925;28;20495;-67
2022/05/15 01:03:46;;;;;;;21.07;18.93;;;11.00;99.90;;;;;;5032704;28;20990;-66
2022/05/15 01:06:13;;;;;;;21.70;19.33;;;11.00;99.90;;;;;;5033943;28;20510;-66
2022/05/15 01:08:41;;;;;;;23.57;20.43;;;10.90;99.90;;;;;;5035707;28;20553;-67
2022/05/15 01:11:12;;;;;;;20.57;18.43;;;10.90;99.90;;;;;;5029610;28;20527;-67
2022/05/15 01:13:43;;;;;;;20.63;18.03;;;10.90;99.90;;;;;;5033331;28;20977;-66
2022/05/15 01:16:12;;;;;;;25.93;19.97;;;10.90;99.90;;;;;;5029741;28;20457;-67
2022/05/15 01:18:40;;;;;;;20.33;18.33;;;10.80;99.90;;;;;;5032759;28;20464;-66
2022/05/15 01:21:26;;;;;;;21.30;18.93;;;10.80;99.90;;;;;;5032559;28;20456;-67
2022/05/15 01:23:54;;;;;;;21.90;18.20;;;10.80;99.90;;;;;;5029493;28;20451;-67
2022/05/15 01:26:24;;;;;;;24.17;21.73;;;10.70;99.90;;;;;;5037116;28;20472;-66
2022/05/15 01:28:52;;;;;;;23.23;21.10;;;10.70;99.90;;;;;;5027156;28;20521;-67
2022/05/15 01:31:19;;;;;;;22.63;19.40;;;10.70;99.90;;;;;;5039654;28;20487;-66
2022/05/15 01:33:49;;;;;;;23.53;19.60;;;10.70;99.90;;;;;;5034790;28;20460;-67
2022/05/15 01:36:20;;;;;;;23.47;21.20;;;10.60;99.90;;;;;;5032579;28;20476;-67
2022/05/15 01:38:47;;;;;;;24.43;19.73;;;10.60;99.90;;;;;;5033925;28;20460;-67
2022/05/15 01:41:15;;;;;;;22.27;19.97;;;10.60;99.90;;;;;;5032895;28;20464;-66
2022/05/15 01:43:44;;;;;;;22.50;20.47;;;10.60;99.90;;;;;;5031409;28;20495;-66
2022/05/15 01:46:12;;;;;;;22.73;20.40;;;10.50;99.90;;;;;;5033524;28;20514;-67
2022/05/15 01:48:40;;;;;;;21.23;19.13;;;10.50;99.90;;;;;;5027915;28;20461;-67
2022/05/15 01:51:06;;;;;;;24.33;22.10;;;10.40;99.90;;;;;;5039745;28;20522;-66
2022/05/15 01:53:35;;;;;;;21.43;19.10;;;10.50;99.90;;;;;;5035291;28;20452;-66
2022/05/15 01:56:04;;;;;;;24.47;21.73;;;10.60;99.90;;;;;;5036142;28;20481;-66
2022/05/15 01:58:30;;;;;;;28.40;19.97;;;10.70;99.90;;;;;;5033066;28;20522;-66
2022/05/15 02:00:57;;;;;;;26.97;21.43;;;10.70;99.90;;;;;;5034727;28;20827;-67
2022/05/15 02:03:24;;;;;;;25.90;19.63;;;10.60;99.90;;;;;;5033813;28;20471;-66
2022/05/15 02:05:52;;;;;;;23.23;21.03;;;10.70;99.90;;;;;;5036809;28;20495;-66
2022/05/15 02:08:19;;;;;;;21.07;19.07;;;10.70;99.90;;;;;;5035013;28;20464;-67
2022/05/15 02:10:48;;;;;;;23.80;20.07;;;10.70;99.90;;;;;;5043400;28;20511;-67
2022/05/15 02:13:15;;;;;;;23.50;21.50;;;10.70;99.90;;;;;;5039139;28;20476;-66
2022/05/15 02:15:43;;;;;;;25.83;23.20;;;10.80;99.90;;;;;;5042307;28;20474;-67
2022/05/15 02:18:10;;;;;;;25.27;22.77;;;10.80;99.90;;;;;;5038742;28;20820;-66
2022/05/15 02:20:37;;;;;;;25.53;22.93;;;10.80;99.90;;;;;;5030959;28;20456;-66
2022/05/15 02:23:04;;;;;;;23.07;20.87;;;10.70;99.90;;;;;;5033476;28;20474;-67
2022/05/15 02:25:33;;;;;;;23.00;20.97;;;10.70;99.90;;;;;;5037156;28;20520;-66
2022/05/15 02:28:01;;;;;;;26.30;23.07;;;10.70;99.90;;;;;;5038375;28;20476;-67
2022/05/15 02:30:28;;;;;;;24.20;21.07;;;10.80;99.90;;;;;;5039051;28;20476;-66
2022/05/15 02:33:10;;;;;;;23.67;21.13;;;10.90;99.90;;;;;;5039848;28;20462;-66
2022/05/15 02:35:52;;;;;;;24.60;22.07;;;10.90;99.90;;;;;;5032230;28;20467;-66
2022/05/15 02:41:00;;;;;;;31.73;22.30;;;11.00;99.90;;;;;;5031313;28;20500;-66
2022/05/15 02:43:28;;;;;;;22.90;20.57;;;11.00;99.90;;;;;;5044919;28;20795;-67
2022/05/15 02:45:55;;;;;;;22.10;20.07;;;10.90;99.90;;;;;;5031870;28;20555;-67
2022/05/15 02:51:09;;;;;;;31.00;22.93;;;10.70;99.90;;;;;;5038219;28;20489;-66
2022/05/15 02:53:39;;;;;;;25.10;20.13;;;10.70;99.90;;;;;;5031986;28;20463;-66
2022/05/15 02:56:11;;;;;;;25.17;22.67;;;10.60;99.90;;;;;;5029512;28;20465;-67
2022/05/15 02:58:39;;;;;;;25.77;23.17;;;10.60;99.90;;;;;;5034960;28;20472;-68
2022/05/15 03:01:07;;;;;;;26.30;23.70;;;10.60;99.90;;;;;;5041389;28;20470;-66
2022/05/15 03:03:34;;;;;;;28.60;22.27;;;10.70;99.90;;;;;;5035227;28;20464;-67
2022/05/15 03:06:02;;;;;;;25.63;22.60;;;10.70;99.90;;;;;;5036532;28;20495;-67
2022/05/15 03:08:30;;;;;;;25.23;22.70;;;10.70;99.90;;;;;;5036773;28;20522;-67
2022/05/15 03:10:58;;;;;;;26.10;23.03;;;10.80;99.90;;;;;;5034977;28;20493;-68
2022/05/15 03:13:25;;;;;;;23.97;21.87;;;10.90;99.90;;;;;;5034596;28;20472;-68
2022/05/15 03:15:53;;;;;;;26.30;22.80;;;10.90;99.90;;;;;;5034635;28;20467;-67
2022/05/15 03:18:20;;;;;;;27.47;24.80;;;10.90;99.90;;;;;;5037201;28;20552;-67
2022/05/15 03:20:47;;;;;;;29.20;23.70;;;11.00;99.90;;;;;;5034187;28;20758;-67
2022/05/15 03:23:14;;;;;;;29.63;22.70;;;11.00;99.90;;;;;;5037057;28;20472;-67
2022/05/15 03:25:41;;;;;;;26.23;23.37;;;11.00;99.90;;;;;;5035427;28;20840;-67
2022/05/15 03:28:11;;;;;;;25.57;23.17;;;11.00;99.90;;;;;;5029139;28;20466;-67
2022/05/15 03:30:40;;;;;;;27.20;24.70;;;11.00;99.90;;;;;;5030456;28;20463;-66
2022/05/15 03:33:09;;;;;;;28.57;24.47;;;11.00;99.90;;;;;;5036972;28;20481;-68
2022/05/15 03:35:39;;;;;;;30.00;26.80;;;11.10;99.90;;;;;;5042604;28;20902;-67
2022/05/15 03:38:06;;;;;;;34.37;24.90;;;11.10;99.90;;;;;;5035221;28;20465;-67
2022/05/15 03:40:34;;;;;;;31.47;24.27;;;11.20;99.90;;;;;;5028726;28;20546;-67
2022/05/15 03:43:01;;;;;;;35.10;25.57;;;11.30;99.90;;;;;;5031189;28;20843;-67
2022/05/15 03:45:29;;;;;;;27.43;24.50;;;11.30;99.90;;;;;;5034123;28;21035;-67
2022/05/15 03:47:57;;;;;;;31.20;24.00;;;11.20;99.90;;;;;;5036210;28;20993;-67
2022/05/15 03:50:28;;;;;;;24.97;22.57;;;11.30;99.90;;;;;;5034863;28;20962;-67
2022/05/15 03:52:55;;;;;;;24.90;22.00;;;11.20;99.90;;;;;;5028062;28;20461;-67
2022/05/15 03:55:22;;;;;;;30.17;25.83;;;11.10;99.90;;;;;;5035760;28;21167;-67
2022/05/15 03:57:55;;;;;;;28.67;22.97;;;11.10;99.90;;;;;;5031580;28;20630;-67
2022/05/15 04:00:22;;;;;;;40.40;24.00;;;11.10;99.90;;;;;;5035490;28;21976;-67
2022/05/15 04:02:49;;;;;;;25.57;22.27;;;11.00;99.90;;;;;;5012834;28;20498;-68
2022/05/15 04:05:16;;;;;;;32.53;24.30;;;11.00;99.90;;;;;;5006121;28;20499;-67
2022/05/15 04:07:45;;;;;;;30.90;24.00;;;11.00;99.90;;;;;;5005973;28;20460;-67
2022/05/15 04:10:13;;;;;;;43.13;26.97;;;11.00;99.90;;;;;;5006499;28;20472;-66
2022/05/15 04:12:40;;;;;;;35.17;24.70;;;11.10;99.90;;;;;;5006693;28;20484;-68
2022/05/15 04:15:08;;;;;;;26.93;24.07;;;11.10;99.90;;;;;;5005328;28;20668;-67
2022/05/15 04:17:40;;;;;;;33.37;25.33;;;11.10;99.90;;;;;;5006115;28;20560;-68
2022/05/15 04:20:09;;;;;;;30.37;24.10;;;11.10;99.90;;;;;;5006033;28;20666;-66
2022/05/15 04:22:36;;;;;;;26.77;23.90;;;11.20;99.90;;;;;;5005941;28;20480;-67
2022/05/15 04:25:05;;;;;;;28.10;24.60;;;11.30;99.90;;;;;;5005374;28;20460;-67
2022/05/15 04:27:32;;;;;;;25.80;23.27;;;11.30;99.90;;;;;;5005381;28;20471;-66
2022/05/15 04:29:59;;;;;;;29.60;23.57;;;11.30;99.90;;;;;;5025222;28;20468;-67
2022/05/15 04:32:26;;;;;;;28.87;22.57;;;11.40;99.90;;;;;;5033489;28;20817;-68
2022/05/15 04:34:52;;;;;;;22.77;20.40;;;11.50;99.90;;;;;;5009831;28;21454;-67
2022/05/15 04:37:20;;;;;;;22.93;20.83;;;11.60;99.90;;;;;;5005930;28;21310;-68
2022/05/15 04:39:47;;;;;;;24.90;21.67;;;11.60;99.90;;;;;;5005430;28;20469;-66
2022/05/15 04:42:16;;;;;;;25.73;23.13;;;11.60;99.90;;;;;;5005581;28;20564;-68
2022/05/15 04:44:43;;;;;;;24.43;22.30;;;11.70;99.90;;;;;;5006001;28;21100;-67
2022/05/15 04:47:09;;;;;;;28.30;23.13;;;11.80;99.90;;;;;;5005557;28;20492;-67
2022/05/15 04:49:36;;;;;;;27.57;22.10;;;11.90;99.90;;;;;;5005578;28;20473;-67
2022/05/15 04:52:03;;;;;;;25.27;22.67;;;12.00;99.90;;;;;;5005986;28;20495;-67
2022/05/15 04:54:31;;;;;;;36.90;23.70;;;12.10;99.90;;;;;;5006367;28;20570;-68
2022/05/15 04:56:58;;;;;;;27.43;22.90;;;12.30;99.90;;;;;;5006347;28;20490;-67
2022/05/15 04:59:26;;;;;;;24.40;21.70;;;12.30;99.90;;;;;;5005803;28;20469;-67
2022/05/15 05:01:53;;;;;;;27.13;20.70;;;12.40;99.90;;;;;;5004591;28;20484;-67
2022/05/15 05:04:19;;;;;;;27.97;20.90;;;12.60;99.90;;;;;;5005422;28;20453;-67
2022/05/15 05:06:47;;;;;;;23.97;20.03;;;12.70;99.90;;;;;;5004676;28;21053;-66
2022/05/15 05:09:14;;;;;;;26.10;21.47;;;12.90;99.90;;;;;;5005803;28;20693;-66
2022/05/15 05:11:41;;;;;;;22.70;20.43;;;13.00;99.90;;;;;;5005910;28;20496;-67
2022/05/15 05:14:09;;;;;;;26.17;20.53;;;13.10;99.90;;;;;;5005352;28;21312;-69
2022/05/15 05:19:17;;;;;;;25.20;20.70;;;13.30;99.90;;;;;;5007152;28;20460;-67
2022/05/15 05:21:44;;;;;;;24.43;20.70;;;13.40;99.90;;;;;;5004983;28;20460;-67
2022/05/15 05:24:11;;;;;;;22.53;18.87;;;13.50;99.90;;;;;;5005123;28;21115;-67
2022/05/15 05:26:38;;;;;;;25.70;22.40;;;13.60;99.90;;;;;;5004775;28;20464;-67
2022/05/15 05:29:05;;;;;;;22.23;19.87;;;13.70;99.90;;;;;;5005421;28;20483;-68
2022/05/15 05:31:32;;;;;;;33.60;20.37;;;13.80;99.90;;;;;;5005712;28;20504;-67
2022/05/15 05:34:01;;;;;;;24.10;20.10;;;14.00;99.90;;;;;;5003799;28;20460;-67
2022/05/15 05:36:27;;;;;;;22.73;19.73;;;14.20;99.90;;;;;;5006381;28;20501;-66
2022/05/15 05:38:54;;;;;;;26.03;19.07;;;14.40;99.90;;;;;;5007850;28;21140;-66
2022/05/15 05:41:21;;;;;;;30.37;20.00;;;14.50;99.90;;;;;;5010698;28;20472;-67
2022/05/15 05:43:48;;;;;;;22.90;17.27;;;14.70;99.90;;;;;;5010316;28;20475;-67
2022/05/15 05:46:15;;;;;;;30.97;19.20;;;14.80;99.90;;;;;;5010047;28;20923;-67
2022/05/15 05:48:45;;;;;;;21.17;19.00;;;14.90;99.90;;;;;;5010462;28;20947;-67
2022/05/15 05:51:14;;;;;;;25.63;18.80;;;15.10;99.90;;;;;;5010429;28;20464;-67
2022/05/15 05:53:41;;;;;;;20.73;18.90;;;15.30;99.90;;;;;;5010516;28;20805;-68
2022/05/15 05:56:08;;;;;;;24.00;20.67;;;15.30;99.90;;;;;;5010400;28;20499;-67
2022/05/15 05:58:36;;;;;;;24.07;19.53;;;15.50;99.90;;;;;;5010138;28;20457;-67
2022/05/15 06:01:03;;;;;;;26.77;19.07;;;15.60;99.90;;;;;;5023023;28;20533;-67
2022/05/15 06:06:16;;;;;;;22.17;19.87;;;15.70;99.90;;;;;;5007416;28;20491;-66
2022/05/15 06:08:43;;;;;;;29.70;18.20;;;15.90;99.90;;;;;;5007565;28;20485;-67
2022/05/15 06:11:10;;;;;;;22.73;19.03;;;16.10;99.90;;;;;;5006993;28;20997;-68
2022/05/15 06:13:38;;;;;;;24.97;19.60;;;16.10;99.90;;;;;;5006195;28;20472;-67
2022/05/15 06:16:06;;;;;;;20.53;18.27;;;16.30;99.90;;;;;;5006807;28;20461;-67
2022/05/15 06:18:33;;;;;;;20.90;18.83;;;16.50;99.90;;;;;;5006220;28;20552;-67
2022/05/15 06:21:00;;;;;;;21.73;19.53;;;16.70;99.90;;;;;;5007067;28;20459;-67
2022/05/15 06:23:28;;;;;;;34.63;17.47;;;16.70;99.90;;;;;;5006780;28;20547;-68
2022/05/15 06:25:55;;;;;;;23.33;17.57;;;16.80;99.90;;;;;;5006441;28;21131;-67
2022/05/15 06:28:22;;;;;;;23.33;18.07;;;16.90;99.90;;;;;;5006079;28;20461;-67
2022/05/15 06:30:49;;;;;;;20.07;17.60;;;17.00;99.90;;;;;;5008265;28;20465;-67
2022/05/15 06:33:15;;;;;;;20.03;17.90;;;17.20;99.90;;;;;;5005362;28;20873;-67
2022/05/15 06:35:44;;;;;;;18.60;16.67;;;17.50;99.90;;;;;;5005942;28;20465;-68
2022/05/15 06:38:10;;;;;;;22.10;17.80;;;17.60;99.90;;;;;;5005677;28;20463;-67
2022/05/15 06:40:39;;;;;;;19.50;17.70;;;17.50;99.90;;;;;;5007403;28;20611;-68
2022/05/15 06:43:06;;;;;;;18.50;16.90;;;17.60;99.90;;;;;;5007045;28;20731;-68
2022/05/15 06:45:33;;;;;;;27.20;18.93;;;17.80;99.90;;;;;;5006958;28;20471;-69
2022/05/15 06:48:00;;;;;;;21.43;19.27;;;17.70;99.90;;;;;;5006615;28;20457;-69
2022/05/15 06:50:27;;;;;;;23.00;19.30;;;17.80;99.90;;;;;;5007628;28;22340;-69
2022/05/15 06:52:54;;;;;;;19.40;17.47;;;18.00;99.90;;;;;;5007281;28;20536;-70
2022/05/15 06:55:23;;;;;;;19.40;17.53;;;18.10;99.90;;;;;;5007200;28;20814;-67
2022/05/15 06:57:50;;;;;;;20.67;17.60;;;18.30;99.90;;;;;;5006887;28;21035;-67
2022/05/15 07:00:19;;;;;;;32.73;18.63;;;18.40;99.90;;;;;;5008138;28;20469;-67
2022/05/15 07:02:46;;;;;;;28.27;18.07;;;18.50;99.90;;;;;;5007311;28;21048;-68
2022/05/15 07:05:16;;;;;;;22.80;17.47;;;18.60;99.90;;;;;;5007476;28;20879;-67
2022/05/15 07:07:43;;;;;;;18.97;17.07;;;18.80;99.90;;;;;;5006778;28;20469;-67
2022/05/15 07:10:11;;;;;;;22.43;16.70;;;19.00;99.90;;;;;;5007995;28;20572;-71
2022/05/15 07:12:38;;;;;;;19.77;17.70;;;19.00;99.90;;;;;;5002698;28;20492;-67
2022/05/15 07:15:08;;;;;;;19.23;15.80;;;19.10;99.90;;;;;;5007300;28;20461;-67
2022/05/15 07:17:35;;;;;;;21.93;16.23;;;19.00;99.90;;;;;;5006593;28;20464;-67
2022/05/15 07:20:03;;;;;;;21.37;17.63;;;19.30;99.90;;;;;;5006606;28;20460;-68
2022/05/15 07:22:30;;;;;;;21.03;16.60;;;19.30;99.90;;;;;;5005602;28;20946;-67
2022/05/15 07:24:57;;;;;;;23.93;16.57;;;19.40;99.90;;;;;;5006254;28;20476;-67
2022/05/15 07:27:24;;;;;;;17.67;16.07;;;19.40;99.90;;;;;;5006727;28;20456;-68
2022/05/15 07:29:51;;;;;;;18.57;16.80;;;19.40;99.90;;;;;;5011129;28;20472;-67
2022/05/15 07:32:20;;;;;;;17.97;16.37;;;19.60;99.90;;;;;;5045599;28;20669;-67
2022/05/15 07:34:47;;;;;;;27.37;15.73;;;19.80;99.90;;;;;;5009341;28;21046;-68
2022/05/15 07:37:13;;;;;;;23.70;14.33;;;20.00;99.90;;;;;;5006038;28;20523;-68
2022/05/15 07:39:41;;;;;;;19.20;17.17;;;20.30;99.90;;;;;;5006696;28;20472;-67
2022/05/15 07:42:09;;;;;;;24.87;16.13;;;20.30;99.90;;;;;;4997758;28;20491;-67
2022/05/15 07:44:36;;;;;;;20.90;15.80;;;20.50;99.90;;;;;;4999726;28;21290;-68
2022/05/15 07:47:03;;;;;;;17.97;16.33;;;20.80;99.90;;;;;;5001968;28;20465;-67
2022/05/15 07:49:31;;;;;;;22.23;16.53;;;21.10;99.90;;;;;;5001233;28;20473;-67
2022/05/15 07:51:59;;;;;;;21.27;16.07;;;21.10;99.90;;;;;;5001775;28;20492;-67
2022/05/15 07:54:26;;;;;;;18.43;16.30;;;21.30;99.90;;;;;;5001313;28;20826;-68
2022/05/15 07:56:53;;;;;;;30.53;17.30;;;21.40;99.90;;;;;;5001626;28;20464;-70
2022/05/15 07:59:20;;;;;;;16.23;14.90;;;21.50;99.90;;;;;;5002597;28;20470;-67
2022/05/15 08:01:47;;;;;;;17.80;16.10;;;21.70;99.90;;;;;;5001447;28;20499;-68
2022/05/15 08:04:14;;;;;;;18.03;16.17;;;21.80;99.90;;;;;;5001015;28;20465;-68
2022/05/15 08:09:26;;;;;;;16.37;14.53;;;22.10;99.90;;;;;;5000735;28;21068;-68
2022/05/15 08:11:53;;;;;;;17.97;16.27;;;22.50;99.90;;;;;;5001166;28;20990;-68
2022/05/15 08:14:20;;;;;;;16.87;15.30;;;22.90;99.90;;;;;;5000950;28;20908;-69
2022/05/15 08:16:48;;;;;;;28.93;17.07;;;23.00;99.90;;;;;;5000293;28;20480;-68
2022/05/15 08:24:46;;;;;;;20.00;16.10;;;23.80;99.90;;;;;;4999862;28;20978;-68
2022/05/15 08:27:13;;;;;;;17.07;15.27;;;25.00;99.90;;;;;;5001703;28;21221;-68
2022/05/15 08:29:40;;;;;;;16.90;15.33;;;25.40;99.10;;;;;;4999925;28;20463;-68
2022/05/15 08:32:08;;;;;;;21.17;16.90;;;26.00;96.00;;;;;;5000342;28;20539;-69
2022/05/15 08:34:36;;;;;;;16.90;15.80;;;26.60;93.30;;;;;;5020933;28;20785;-69
2022/05/15 08:37:05;;;;;;;17.07;15.60;;;27.20;91.00;;;;;;5032376;28;21277;-68
2022/05/15 08:39:33;;;;;;;17.33;15.83;;;27.60;89.40;;;;;;5026663;28;20464;-69
2022/05/15 08:42:17;;;;;;;16.93;15.50;;;27.50;87.30;;;;;;5012909;28;20481;-69
2022/05/15 08:44:46;;;;;;;17.60;15.80;;;27.10;83.70;;;;;;5001277;28;21733;-68
2022/05/15 08:47:18;;;;;;;16.07;14.90;;;27.20;80.40;;;;;;5000814;28;20488;-69
2022/05/15 08:49:50;;;;;;;17.60;16.13;;;28.00;80.20;;;;;;4999490;28;20471;-69
2022/05/15 08:52:25;;;;;;;17.20;15.53;;;28.60;79.30;;;;;;4998128;28;20496;-69
2022/05/15 08:54:57;;;;;;;17.77;16.07;;;27.60;73.40;;;;;;4999303;28;20467;-69
2022/05/15 08:57:35;;;;;;;18.90;14.80;;;27.40;74.80;;;;;;5000556;28;20464;-69
2022/05/15 09:00:05;;;;;;;17.63;16.13;;;27.60;71.10;;;;;;5000603;28;20507;-68
2022/05/15 09:02:32;;;;;;;19.23;15.20;;;27.30;70.50;;;;;;4999411;28;20476;-69
2022/05/15 09:04:59;;;;;;;18.00;16.40;;;27.50;69.70;;;;;;5000285;28;20534;-69
2022/05/15 09:07:39;;;;;;;16.00;14.70;;;27.80;66.00;;;;;;5000678;28;20456;-68
2022/05/15 09:10:16;;;;;;;17.00;15.60;;;28.50;68.00;;;;;;5000371;28;21126;-69
2022/05/15 09:12:47;;;;;;;16.27;15.07;;;29.00;65.20;;;;;;5000373;28;20683;-68
2022/05/15 09:15:19;;;;;;;16.30;14.83;;;29.60;60.60;;;;;;5004176;28;20464;-68
2022/05/15 09:17:51;;;;;;;16.60;15.33;;;29.40;59.60;;;;;;5005253;28;20476;-69
2022/05/15 09:20:28;;;;;;;17.37;15.97;;;29.80;59.80;;;;;;5005558;28;20484;-70
2022/05/15 09:23:00;;;;;;;17.33;15.97;;;30.40;56.80;;;;;;5003899;28;20471;-69
2022/05/15 09:25:32;;;;;;;16.57;15.40;;;30.60;56.20;;;;;;5003843;28;20564;-69
2022/05/15 09:28:02;;;;;;;16.63;15.50;;;31.00;55.30;;;;;;5004869;28;21986;-69
2022/05/15 09:30:35;;;;;;;17.77;15.90;;;30.90;54.30;;;;;;5003824;28;20452;-69
2022/05/15 09:33:03;;;;;;;17.73;15.93;;;30.90;54.10;;;;;;5002607;28;20516;-68
2022/05/15 09:35:36;;;;;;;16.70;15.30;;;30.70;51.60;;;;;;5004384;28;20591;-69
2022/05/15 09:43:52;;;;;;;17.30;14.40;;;31.20;52.20;;;;;;4989333;28;20518;-69
2022/05/15 09:46:21;;;;;;;16.73;15.47;;;31.20;50.80;;;;;;5002106;28;20468;-69
2022/05/15 09:48:52;;;;;;;17.87;16.23;;;30.60;49.60;;;;;;5003123;28;20996;-70
2022/05/15 09:51:28;;;;;;;15.57;14.43;;;31.20;50.10;;;;;;5002702;28;20465;-69
2022/05/15 09:53:57;;;;;;;17.77;14.97;;;31.80;49.90;;;;;;5000806;28;20496;-70
2022/05/15 09:56:29;;;;;;;18.03;14.80;;;31.90;47.90;;;;;;5002534;28;20479;-72
2022/05/15 09:58:59;;;;;;;14.80;13.80;;;32.00;47.20;;;;;;5001806;28;20510;-70
2022/05/15 10:01:35;;;;;;;17.03;15.37;;;32.30;46.90;;;;;;5003285;28;20489;-69
2022/05/15 10:04:05;;;;;;;15.67;14.43;;;32.40;47.80;;;;;;5002364;28;20597;-70
2022/05/15 10:06:35;;;;;;;15.93;14.30;;;33.30;46.90;;;;;;5001545;28;20479;-70
2022/05/15 10:09:11;;;;;;;15.80;14.40;;;32.00;46.70;;;;;;5002332;28;20476;-69
2022/05/15 10:11:41;;;;;;;17.03;13.60;;;31.50;47.60;;;;;;5001100;28;20464;-69
2022/05/15 10:14:15;;;;;;;14.53;13.50;;;31.40;47.70;;;;;;5001372;28;21286;-70
2022/05/15 10:16:49;;;;;;;14.17;12.80;;;31.80;47.20;;;;;;5002654;28;20466;-69
2022/05/15 10:19:22;;;;;;;14.30;13.00;;;32.10;47.10;;;;;;5000824;28;21290;-70
2022/05/15 10:21:52;;;;;;;13.83;12.43;;;32.60;47.30;;;;;;5001653;28;20967;-70
2022/05/15 10:24:26;;;;;;;14.30;13.20;;;32.80;45.70;;;;;;5000854;28;20580;-70
2022/05/15 10:27:02;;;;;;;14.30;13.00;;;33.30;45.10;;;;;;5001362;28;20479;-70
2022/05/15 10:29:36;;;;;;;14.97;13.87;;;33.20;44.30;;;;;;5000357;28;21006;-70
2022/05/15 10:32:09;;;;;;;13.33;12.47;;;34.30;44.30;;;;;;5000110;28;21040;-70
2022/05/15 10:34:36;;;;;;;14.23;13.30;;;34.30;42.90;;;;;;5002241;28;20903;-70
2022/05/15 10:37:26;;;;;;;13.00;12.03;;;33.90;43.20;;;;;;5031446;28;20468;-70
2022/05/15 10:40:13;;;;;;;14.00;12.67;;;33.00;44.50;;;;;;5026797;28;20465;-69
2022/05/15 10:42:51;;;;;;;14.63;13.43;;;33.10;44.60;;;;;;5023060;28;20463;-69
2022/05/15 10:45:22;;;;;;;14.60;13.37;;;31.70;45.50;;;;;;5002669;28;20500;-70
2022/05/15 10:48:00;;;;;;;14.67;13.50;;;31.20;47.50;;;;;;5001070;28;21531;-70
2022/05/15 10:50:34;;;;;;;14.50;13.53;;;31.40;47.00;;;;;;5002089;28;20560;-70
2022/05/15 10:58:57;;;;;;;14.27;13.20;;;34.00;43.80;;;;;;5003111;28;21044;-69
2022/05/15 11:01:32;;;;;;;14.83;13.53;;;34.10;43.80;;;;;;5003671;28;21203;-69
2022/05/15 11:04:10;;;;;;;14.83;13.63;;;35.00;43.20;;;;;;5002546;28;20464;-70
2022/05/15 11:07:01;;;;;;;14.83;13.63;;;35.70;41.40;;;;;;5003246;28;20587;-69
2022/05/15 11:09:37;;;;;;;14.47;13.30;;;35.10;40.50;;;;;;5003329;28;21036;-69
2022/05/15 11:12:20;;;;;;;14.57;13.47;;;35.40;42.50;;;;;;5001340;28;20985;-69
2022/05/15 11:15:01;;;;;;;14.17;13.00;;;36.10;41.10;;;;;;5001597;28;21083;-70
2022/05/15 11:17:33;;;;;;;14.23;13.23;;;35.60;39.90;;;;;;5002245;28;20473;-69
2022/05/15 11:20:08;;;;;;;13.83;12.70;;;35.20;40.80;;;;;;5002450;28;20849;-70
2022/05/15 11:22:38;;;;;;;13.80;12.83;;;34.90;40.80;;;;;;5001135;28;20459;-70
2022/05/15 11:25:14;;;;;;;14.33;12.93;;;34.20;41.30;;;;;;5002316;28;20523;-70
2022/05/15 11:27:48;;;;;;;14.77;13.67;;;33.90;41.30;;;;;;5002855;28;20473;-69
2022/05/15 11:30:21;;;;;;;14.50;13.20;;;33.80;42.20;;;;;;4998477;28;20522;-69
2022/05/15 11:33:04;;;;;;;13.73;12.77;;;34.90;40.90;;;;;;5001501;28;20549;-69
2022/05/15 11:35:34;;;;;;;13.43;12.20;;;35.00;40.30;;;;;;5016513;28;20555;-69
2022/05/15 11:38:27;;;;;;;13.30;12.37;;;34.90;37.70;;;;;;5004582;28;20564;-69
2022/05/15 11:40:55;;;;;;;13.10;12.10;;;34.50;36.50;;;;;;5029415;28;20461;-69
2022/05/15 11:44:01;;;;;;;14.23;13.10;;;34.60;36.60;;;;;;5003473;28;20507;-69
2022/05/15 11:47:16;;;;;;;13.83;12.83;;;34.80;38.70;;;;;;4940220;28;20471;-70
2022/05/15 11:49:59;;;;;;;13.57;12.67;;;35.40;37.20;;;;;;4997353;28;20476;-69
2022/05/15 11:52:37;;;;;;;13.00;12.10;;;35.50;36.30;;;;;;5000942;28;20712;-69
2022/05/15 11:55:41;;;;;;;12.77;11.80;;;35.60;35.40;;;;;;5006235;28;20464;-70
2022/05/15 11:58:33;;;;;;;12.97;12.07;;;35.70;35.30;;;;;;5028646;28;20460;-69
2022/05/15 12:01:08;;;;;;;14.57;13.27;;;35.50;35.10;;;;;;5002854;28;20476;-69
2022/05/15 12:03:50;;;;;;;13.27;12.07;;;35.40;36.10;;;;;;5002022;28;20500;-70
2022/05/15 12:06:19;;;;;;;13.80;12.53;;;35.70;34.90;;;;;;5000575;28;20484;-69
2022/05/15 12:08:52;;;;;;;14.07;12.80;;;36.50;33.90;;;;;;5001768;28;20468;-70
2022/05/15 12:11:33;;;;;;;13.70;12.50;;;37.10;34.20;;;;;;4998146;28;20995;-70
2022/05/15 12:14:31;;;;;;;12.93;12.13;;;36.70;33.60;;;;;;4996977;28;21706;-70
2022/05/15 12:17:00;;;;;;;13.17;12.37;;;36.60;34.00;;;;;;5000307;28;21011;-70
2022/05/15 12:19:32;;;;;;;12.53;11.73;;;35.90;33.90;;;;;;5001116;28;20459;-70
2022/05/15 12:22:06;;;;;;;13.60;12.37;;;35.90;34.40;;;;;;5001050;28;21531;-70
2022/05/15 12:24:36;;;;;;;12.80;12.00;;;35.90;34.30;;;;;;5020091;28;20496;-69
2022/05/15 12:27:11;;;;;;;13.10;12.00;;;35.60;33.60;;;;;;4999183;28;20465;-70
2022/05/15 12:29:57;;;;;;;12.50;11.57;;;35.60;33.10;;;;;;4999404;28;20472;-70
2022/05/15 12:32:31;;;;;;;13.50;12.40;;;35.90;33.30;;;;;;5001574;28;20468;-69
2022/05/15 12:34:59;;;;;;;12.80;11.53;;;36.80;33.30;;;;;;5000798;28;20503;-70
2022/05/15 12:37:30;;;;;;;12.00;11.40;;;37.10;33.20;;;;;;5000494;28;20914;-70
2022/05/15 12:39:58;;;;;;;12.83;12.13;;;36.10;31.70;;;;;;5000024;28;20457;-70
2022/05/15 12:42:40;;;;;;;12.10;11.40;;;35.50;32.80;;;;;;5001540;28;20510;-70
2022/05/15 12:45:24;;;;;;;12.67;11.90;;;36.20;33.30;;;;;;4998883;28;20641;-70
2022/05/15 12:48:08;;;;;;;14.73;12.20;;;37.00;33.50;;;;;;4997904;28;20469;-70
2022/05/15 12:50:49;;;;;;;13.30;12.40;;;37.00;32.10;;;;;;4994827;28;20563;-70
2022/05/15 12:53:20;;;;;;;11.97;11.33;;;37.40;29.70;;;;;;4999997;28;20747;-70
2022/05/15 12:55:47;;;;;;;12.27;11.43;;;37.90;29.10;;;;;;4995778;28;22548;-70
2022/05/15 12:58:13;;;;;;;12.43;11.60;;;38.70;28.80;;;;;;4997034;28;20472;-70
2022/05/15 13:00:43;;;;;;;11.67;10.90;;;39.00;28.50;;;;;;5027126;28;20886;-70
2022/05/15 13:03:12;;;;;;;12.40;11.70;;;38.10;27.20;;;;;;5013054;28;20493;-70
2022/05/15 13:05:52;;;;;;;13.47;12.57;;;37.50;29.60;;;;;;5024998;28;20492;-70
2022/05/15 13:08:19;;;;;;;13.13;12.33;;;37.50;29.60;;;;;;5025723;28;20455;-70
2022/05/15 13:10:55;;;;;;;12.83;11.93;;;37.60;27.40;;;;;;5000868;28;20469;-69
2022/05/15 13:13:25;;;;;;;14.07;13.17;;;36.40;27.40;;;;;;5000055;28;20514;-70
2022/05/15 13:15:55;;;;;;;15.10;14.20;;;36.20;28.90;;;;;;4999493;28;20564;-71